Weather at Eromanga Airport

Public forecast

Using degrees Celsius for public forecast. Weather courtesy of forecast.io.

Closest aviation weather report (METAR) to Eromanga Airport

Closest report is Charleville Airport, 161.8 nm (299.6 km) E. Retrieved 2021/06/19 22:00 UTC (29 minutes ago):

YBCV 192200Z AUTO 00000KT 9999 // NCD 03/02 Q1022

Closest aviation forecast (TAF) to Eromanga Airport

Closest forecast is Rockhampton Airport, 439.7 nm (814.3 km) ENE. Retrieved 2021/06/19 18:36 UTC (4 hours ago):

TAF YBRK 191641Z 1918/2018 22005KT 9999 SCT020 FM192300 20007KT CAVOK FM200900 20005KT 9999 FEW020